EST,Max TemperatureF,Mean TemperatureF,Min TemperatureF,Max Dew PointF,MeanDew PointF,Min DewpointF,Max Humidity, Mean Humidity, Min Humidity, Max Sea Level PressureIn, Mean Sea Level PressureIn, Min Sea Level PressureIn, Max VisibilityMiles, Mean VisibilityMiles, Min VisibilityMiles, Max Wind SpeedMPH, Mean Wind SpeedMPH, Max Gust SpeedMPH,PrecipitationIn, CloudCover, Events, WindDirDegrees
2012-11-1,51,42,32,33,28,24,76,57,38,29.87,29.83,29.80,10,10,10,20,10,25,0.00,5,,277
2012-11-2,49,41,33,33,30,27,82,66,50,30.11,29.99,29.85,10,10,10,18,6,25,0.00,4,,337
2012-11-3,42,36,30,34,31,28,92,84,75,30.20,30.15,30.12,10,10,9,13,3,15,T,5,Rain,29
2012-11-4,42,35,28,30,28,25,92,76,59,30.22,30.18,30.16,10,10,8,13,4,17,0.00,5,,3
2012-11-5,45,35,24,28,25,21,92,71,49,30.21,30.17,30.12,10,9,5,12,4,15,0.00,0,,83
2012-11-6,49,37,24,33,26,20,88,65,42,30.12,30.01,29.91,10,9,4,9,3,10,0.00,3,,131
2012-11-7,50,40,30,35,31,27,85,66,46,30.14,30.01,29.90,10,8,4,14,4,18,T,3,Rain,35
2012-11-8,49,39,28,33,29,24,92,73,54,30.24,30.19,30.15,10,6,2,10,2,,0.00,1,,276
2012-11-9,61,46,30,38,34,27,92,67,42,30.21,30.14,30.06,10,6,2,17,9,23,0.00,1,,191
2012-11-10,69,60,51,46,41,37,59,49,39,30.13,30.08,30.04,10,10,10,20,12,26,0.00,1,,197
2012-11-11,68,61,53,44,40,35,59,48,36,30.14,30.05,29.96,10,10,10,26,17,38,0.00,1,,191
2012-11-12,61,47,32,53,36,23,93,72,51,30.37,30.10,29.94,10,7,1,25,13,33,0.77,6,Rain-Snow,264
2012-11-13,38,32,25,24,22,20,85,69,52,30.54,30.47,30.38,10,10,10,13,5,20,0.00,0,,281
2012-11-14,41,32,23,27,24,20,88,72,55,30.56,30.49,30.41,10,10,6,13,5,16,0.00,0,,99
2012-11-15,43,33,23,30,26,19,92,75,57,30.42,30.38,30.34,9,6,2,9,1,23,0.00,0,,27
2012-11-16,50,37,24,32,26,20,88,67,46,30.51,30.45,30.39,9,5,2,7,1,17,0.00,0,,63
2012-11-17,55,41,26,34,28,22,92,67,41,30.58,30.53,30.48,10,6,2,12,3,14,0.00,0,,102
2012-11-18,60,44,28,32,28,24,85,56,27,30.48,30.43,30.38,10,10,7,12,3,23,0.00,0,,106
2012-11-19,60,46,32,31,28,24,75,51,27,30.37,30.29,30.17,10,10,10,8,2,16,0.00,0,,180
2012-11-20,57,51,44,41,36,30,77,59,40,30.16,30.12,30.06,10,9,6,8,2,16,T,8,Rain,186
2012-11-21,60,47,33,43,37,32,93,72,51,30.25,30.20,30.14,8,3,0,8,2,12,0.00,1,Fog,309
2012-11-22,62,49,36,41,38,33,92,69,46,30.19,30.09,29.91,10,6,2,21,10,29,0.00,1,,195
2012-11-23,56,42,28,49,29,17,89,70,51,30.19,30.03,29.89,10,9,3,36,18,45,0.15,7,Rain,278
2012-11-24,30,28,25,20,19,17,75,67,58,30.25,30.18,30.10,10,10,10,18,9,17,0.00,7,,277
2012-11-25,45,36,27,29,23,19,75,60,45,30.08,29.97,29.89,10,10,10,20,9,26,0.00,2,,238
2012-11-26,47,37,26,29,27,23,85,64,42,30.30,30.19,30.04,10,9,5,15,5,,T,4,Snow,352
2012-11-27,37,32,26,27,23,19,92,72,52,30.40,30.33,30.28,10,8,2,13,4,17,0.00,4,,339
2012-11-28,42,34,26,23,21,19,75,60,45,30.40,30.36,30.30,10,9,6,14,7,18,0.00,1,,244
2012-11-29,47,38,28,28,25,21,75,60,45,30.38,30.28,30.19,10,9,7,16,8,30,0.00,0,,190
2012-11-30,56,47,38,35,30,26,70,56,41,30.18,30.15,30.10,10,10,10,17,8,24,0.00,2,,195